createdAt,value
2018-12-23T00:01:06.362Z,8.80
2018-12-23T00:03:35.840Z,8.80
2018-12-23T00:11:03.179Z,8.90
2018-12-23T00:20:59.582Z,8.90
2018-12-23T00:23:28.517Z,8.90
2018-12-23T00:25:59.967Z,8.90
2018-12-23T00:33:27.221Z,8.90
2018-12-23T00:35:55.935Z,8.90
2018-12-23T00:40:53.006Z,8.90
2018-12-23T00:45:49.848Z,8.90
2018-12-23T00:50:49.044Z,8.90
2018-12-23T00:53:17.613Z,8.80
2018-12-23T00:55:45.816Z,8.80
2018-12-23T01:05:44.111Z,8.80
2018-12-23T01:10:41.293Z,8.90
2018-12-23T01:13:10.076Z,8.80
2018-12-23T01:15:39.988Z,8.90
2018-12-23T01:18:09.356Z,8.90
2018-12-23T01:20:38.398Z,8.90
2018-12-23T01:28:05.480Z,8.80
2018-12-23T01:38:03.404Z,8.80
2018-12-23T01:40:32.661Z,8.80
2018-12-23T01:43:01.291Z,8.70
2018-12-23T01:45:30.865Z,8.70
2018-12-23T02:00:23.759Z,8.50
2018-12-23T02:15:14.214Z,8.40
2018-12-23T02:20:11.363Z,8.40
2018-12-23T02:25:11.031Z,8.30
2018-12-23T02:30:10.063Z,8.20
2018-12-23T02:32:39.114Z,8.20
2018-12-23T02:35:08.159Z,8.20
2018-12-23T02:40:06.774Z,8.10
2018-12-23T02:50:03.496Z,8.20
2018-12-23T02:59:59.558Z,8.20
2018-12-23T03:02:28.044Z,8.30
2018-12-23T03:04:57.160Z,8.30
2018-12-23T03:07:25.680Z,8.30
2018-12-23T03:09:54.827Z,8.30
2018-12-23T03:12:23.042Z,8.30
2018-12-23T03:17:20.961Z,8.30
2018-12-23T03:22:18.917Z,8.30
2018-12-23T03:27:17.225Z,8.40
2018-12-23T03:34:43.255Z,8.30
2018-12-23T03:37:12.790Z,8.30
2018-12-23T03:39:41.005Z,8.30
2018-12-23T03:42:09.612Z,8.30
2018-12-23T03:44:38.266Z,8.20
2018-12-23T03:52:06.764Z,8.20
2018-12-23T04:07:03.767Z,8.10
2018-12-23T04:09:32.819Z,8.20
2018-12-23T04:12:01.285Z,8.20
2018-12-23T04:16:58.933Z,8.30
2018-12-23T04:19:27.442Z,8.30
2018-12-23T04:26:55.656Z,8.40
2018-12-23T04:39:20.661Z,8.30
2018-12-23T04:46:46.977Z,8.40
2018-12-23T04:49:15.781Z,8.30
2018-12-23T04:51:45.660Z,8.40
2018-12-23T04:59:12.206Z,8.40
2018-12-23T05:01:41.459Z,8.40
2018-12-23T05:09:08.864Z,8.40
2018-12-23T05:11:37.125Z,8.40
2018-12-23T05:14:05.976Z,8.40
2018-12-23T05:16:35.331Z,8.40
2018-12-23T05:28:59.600Z,8.40
2018-12-23T05:36:26.048Z,8.50
2018-12-23T05:38:54.778Z,8.50
2018-12-23T05:41:24.777Z,8.40
2018-12-23T05:43:53.919Z,8.50
2018-12-23T05:46:23.291Z,8.40
2018-12-23T06:03:44.110Z,8.50
2018-12-23T06:08:42.208Z,8.50
2018-12-23T06:11:11.877Z,8.50
2018-12-23T06:13:40.611Z,8.50
2018-12-23T06:16:10.808Z,8.60
2018-12-23T06:18:39.008Z,8.60
2018-12-23T06:21:08.063Z,8.50
2018-12-23T06:23:37.133Z,8.50
2018-12-23T06:26:06.895Z,8.60
2018-12-23T06:31:05.095Z,8.60
2018-12-23T06:36:03.305Z,8.60
2018-12-23T06:38:32.004Z,8.60
2018-12-23T06:45:59.385Z,8.60
2018-12-23T06:50:57.367Z,8.70
2018-12-23T06:58:23.261Z,8.70
2018-12-23T07:05:48.060Z,8.80
2018-12-23T07:08:16.948Z,8.80
2018-12-23T07:13:13.894Z,8.80
2018-12-23T07:18:11.154Z,8.80
2018-12-23T07:20:39.980Z,8.80
2018-12-23T07:23:08.604Z,8.80
2018-12-23T07:28:07.032Z,8.80
2018-12-23T07:38:01.732Z,8.90
2018-12-23T07:42:59.439Z,8.90
2018-12-23T07:47:56.594Z,8.90
2018-12-23T07:52:55.724Z,9.00
2018-12-23T07:57:53.205Z,9.00
2018-12-23T08:05:19.929Z,9.00
2018-12-23T08:07:48.460Z,9.00
2018-12-23T08:15:16.121Z,9.10
2018-12-23T08:22:42.119Z,9.20
2018-12-23T08:27:39.792Z,9.20
2018-12-23T08:30:08.223Z,9.20
2018-12-23T08:42:38.565Z,9.30
2018-12-23T08:47:35.204Z,9.40
2018-12-23T08:50:05.088Z,9.40
2018-12-23T08:57:31.569Z,9.60
2018-12-23T09:07:25.208Z,9.60
2018-12-23T09:09:53.712Z,9.60
2018-12-23T09:22:19.829Z,9.50
2018-12-23T09:24:48.145Z,9.60
2018-12-23T09:27:18.293Z,9.60
2018-12-23T09:29:46.908Z,9.70
2018-12-23T09:34:44.093Z,9.70
2018-12-23T09:37:12.329Z,9.70
2018-12-23T09:44:40.484Z,9.80
2018-12-23T09:49:39.105Z,9.90
2018-12-23T10:09:32.844Z,10.10
2018-12-23T10:12:02.857Z,10.10
2018-12-23T10:19:30.185Z,10.10
2018-12-23T10:24:29.078Z,10.10
2018-12-23T10:26:57.356Z,10.10
2018-12-23T10:34:25.621Z,10.00
2018-12-23T10:36:54.252Z,10.00
2018-12-23T10:39:22.428Z,9.90
2018-12-23T10:44:21.290Z,10.00
2018-12-23T10:51:49.790Z,10.00
2018-12-23T10:54:18.392Z,10.00
2018-12-23T10:56:48.373Z,10.00
2018-12-23T10:59:17.038Z,10.00
2018-12-23T11:06:43.398Z,9.80
2018-12-23T11:18:02.258Z,9.80
2018-12-23T11:20:33.162Z,9.70
2018-12-23T11:23:03.453Z,9.60
2018-12-23T11:25:36.398Z,9.70
2018-12-23T11:28:06.667Z,9.70
2018-12-23T11:30:36.990Z,9.60
2018-12-23T11:33:07.218Z,9.60
2018-12-23T11:35:39.347Z,9.60
2018-12-23T11:38:10.804Z,9.50
2018-12-23T11:40:41.070Z,9.50
2018-12-23T11:43:11.813Z,9.50
2018-12-23T11:45:42.127Z,9.50
2018-12-23T11:48:14.226Z,9.50
2018-12-23T11:50:44.535Z,9.40
2018-12-23T11:53:14.909Z,9.50
2018-12-23T11:55:48.646Z,9.40
2018-12-23T11:58:18.965Z,9.40
2018-12-23T12:00:49.213Z,9.40
2018-12-23T12:03:20.526Z,9.40
2018-12-23T12:05:51.791Z,9.40
2018-12-23T12:08:23.246Z,9.40
2018-12-23T12:10:53.927Z,9.40
2018-12-23T12:13:25.146Z,9.30
2018-12-23T12:15:56.874Z,9.30
2018-12-23T12:18:28.182Z,9.30
2018-12-23T12:20:58.049Z,9.40
2018-12-23T12:23:28.345Z,9.40
2018-12-23T12:25:59.574Z,9.40
2018-12-23T12:28:30.813Z,9.40
2018-12-23T12:31:02.945Z,9.40
2018-12-23T12:33:33.313Z,9.40
2018-12-23T12:36:07.295Z,9.40
2018-12-23T12:38:38.501Z,9.50
2018-12-23T12:41:11.443Z,9.20
2018-12-23T12:43:44.302Z,9.30
2018-12-23T12:46:17.290Z,9.30
2018-12-23T12:48:48.406Z,9.40
2018-12-23T12:51:20.910Z,9.40
2018-12-23T12:53:52.249Z,9.40
2018-12-23T12:56:25.929Z,9.40
2018-12-23T12:58:57.009Z,9.30
2018-12-23T13:01:30.218Z,9.30
2018-12-23T13:04:01.933Z,9.30
2018-12-23T13:06:35.981Z,9.30
2018-12-23T13:09:08.570Z,9.40
2018-12-23T13:11:40.773Z,9.40
2018-12-23T13:14:11.086Z,9.40
2018-12-23T13:16:45.438Z,9.40
2018-12-23T13:19:17.105Z,9.40
2018-12-23T13:21:50.101Z,9.40
2018-12-23T13:24:22.669Z,9.40
2018-12-23T13:26:53.930Z,9.40
2018-12-23T13:29:25.062Z,9.40
2018-12-23T13:31:59.042Z,9.40
2018-12-23T13:34:29.320Z,9.40
2018-12-23T13:37:01.490Z,9.40
2018-12-23T13:39:31.803Z,9.40
2018-12-23T13:42:05.245Z,9.40
2018-12-23T13:44:45.874Z,9.50
2018-12-23T13:47:37.171Z,9.50
2018-12-23T13:50:34.073Z,9.50
2018-12-23T13:53:07.530Z,9.60
2018-12-23T13:55:47.334Z,9.60
2018-12-23T13:58:36.784Z,9.60
2018-12-23T14:01:12.797Z,9.80
2018-12-23T14:04:04.813Z,9.80
2018-12-23T14:06:55.946Z,9.80
2018-12-23T14:09:55.666Z,9.80
2018-12-23T14:12:26.157Z,9.90
2018-12-23T14:14:57.522Z,9.90
2018-12-23T14:17:29.087Z,9.80
2018-12-23T14:20:00.350Z,9.70
2018-12-23T14:22:32.439Z,9.80
2018-12-23T14:25:03.133Z,9.70
2018-12-23T14:27:34.354Z,9.70
2018-12-23T14:30:06.464Z,9.80
2018-12-23T14:32:38.095Z,9.80
2018-12-23T14:35:08.409Z,9.80
2018-12-23T14:37:39.634Z,9.80
2018-12-23T14:40:10.808Z,9.90
2018-12-23T14:42:41.086Z,9.90
2018-12-23T14:45:11.424Z,9.80
2018-12-23T14:47:44.536Z,9.80
2018-12-23T14:50:15.877Z,9.90
2018-12-23T14:52:47.491Z,9.90
2018-12-23T14:55:20.552Z,9.80
2018-12-23T14:57:52.842Z,9.90
2018-12-23T15:00:28.172Z,9.80
2018-12-23T15:02:58.501Z,9.80
2018-12-23T15:05:29.767Z,9.80
2018-12-23T15:08:01.333Z,9.80
2018-12-23T15:10:32.662Z,9.80
2018-12-23T15:13:06.979Z,9.80
2018-12-23T15:15:38.314Z,9.60
2018-12-23T15:18:10.924Z,9.70
2018-12-23T15:20:42.258Z,9.70
2018-12-23T15:23:12.642Z,9.60
2018-12-23T15:25:44.302Z,9.50
2018-12-23T15:30:47.151Z,9.50
2018-12-23T15:33:18.337Z,9.60
2018-12-23T15:35:50.220Z,9.60
2018-12-23T15:38:22.797Z,9.60
2018-12-23T15:40:54.046Z,9.70
2018-12-23T15:43:25.380Z,9.60
2018-12-23T15:45:57.575Z,9.70
2018-12-23T15:48:28.810Z,9.60
2018-12-23T15:51:01.258Z,9.60
2018-12-23T15:53:34.348Z,9.60
2018-12-23T15:56:05.563Z,9.50
2018-12-23T15:58:37.460Z,9.40
2018-12-23T16:01:09.547Z,9.50
2018-12-23T16:03:45.270Z,9.40
2018-12-23T16:06:16.367Z,9.30
2018-12-23T16:08:47.833Z,9.30
2018-12-23T16:11:20.043Z,9.20
2018-12-23T16:13:50.306Z,9.20
2018-12-23T16:16:28.969Z,9.20
2018-12-23T16:19:02.282Z,9.20
2018-12-23T16:21:34.716Z,9.30
2018-12-23T16:24:07.050Z,9.30
2018-12-23T16:26:38.882Z,9.30
2018-12-23T16:29:11.884Z,9.30
2018-12-23T16:31:44.521Z,9.30
2018-12-23T16:34:15.906Z,9.30
2018-12-23T16:36:48.503Z,9.30
2018-12-23T16:39:19.668Z,9.30
2018-12-23T16:41:53.904Z,9.20
2018-12-23T16:44:24.222Z,9.10
2018-12-23T16:46:55.451Z,9.10
2018-12-23T16:49:28.493Z,9.20
2018-12-23T16:52:02.933Z,9.10
2018-12-23T16:54:35.375Z,9.20
2018-12-23T16:57:07.914Z,9.30
2018-12-23T16:59:40.271Z,9.20
2018-12-23T17:02:10.520Z,9.10
2018-12-23T17:04:41.753Z,9.20
2018-12-23T17:07:13.330Z,9.10
2018-12-23T17:09:47.516Z,9.10
2018-12-23T17:12:17.781Z,9.10
2018-12-23T17:14:49.062Z,9.20
2018-12-23T17:17:19.350Z,9.20
2018-12-23T17:19:51.963Z,9.20
2018-12-23T17:22:23.203Z,9.30
2018-12-23T17:24:53.574Z,9.30
2018-12-23T17:27:25.368Z,9.30
2018-12-23T17:29:58.490Z,9.30
2018-12-23T17:32:28.884Z,9.30
2018-12-23T17:35:00.155Z,9.30
2018-12-23T17:37:33.103Z,9.30
2018-12-23T17:40:04.796Z,9.40
2018-12-23T17:42:35.947Z,9.40
2018-12-23T17:45:07.306Z,9.30
2018-12-23T17:47:37.769Z,9.30
2018-12-23T17:50:10.570Z,9.30
2018-12-23T17:55:14.290Z,9.30
2018-12-23T17:57:44.654Z,9.40
2018-12-23T18:00:15.996Z,9.40
2018-12-23T18:02:47.277Z,9.40
2018-12-23T18:05:19.851Z,9.40
2018-12-23T18:07:51.268Z,9.40
2018-12-23T18:10:25.145Z,9.40
2018-12-23T18:12:55.443Z,9.50
2018-12-23T18:15:28.488Z,9.50
2018-12-23T18:17:59.742Z,9.50
2018-12-23T18:20:30.098Z,9.40
2018-12-23T18:23:01.357Z,9.50
2018-12-23T18:25:32.671Z,9.50
2018-12-23T18:28:04.962Z,9.40
2018-12-23T18:30:37.630Z,9.30
2018-12-23T18:33:09.961Z,9.40
2018-12-23T18:35:41.141Z,9.40
2018-12-23T18:38:13.050Z,9.40
2018-12-23T18:40:45.570Z,9.40
2018-12-23T18:43:17.858Z,9.40
2018-12-23T18:45:49.089Z,9.30
2018-12-23T18:48:20.265Z,9.40
2018-12-23T18:50:53.378Z,9.40
2018-12-23T18:53:23.727Z,9.40
2018-12-23T18:55:55.341Z,9.40
2018-12-23T18:58:27.082Z,9.40
2018-12-23T19:00:58.324Z,9.40
2018-12-23T19:03:28.331Z,9.40
2018-12-23T19:05:58.902Z,9.40
2018-12-23T19:08:31.433Z,9.30
2018-12-23T19:11:20.186Z,9.20
2018-12-23T19:14:00.422Z,9.10
2018-12-23T19:16:47.054Z,9.10
2018-12-23T19:19:45.843Z,9.00
2018-12-23T19:22:22.263Z,8.90
2018-12-23T19:25:08.254Z,9.00
2018-12-23T19:27:57.097Z,8.90
2018-12-23T19:31:01.021Z,8.90
2018-12-23T19:33:40.818Z,9.00
2018-12-23T19:36:29.010Z,8.90
2018-12-23T19:41:59.284Z,8.80
2018-12-23T19:44:45.062Z,8.80
2018-12-23T19:47:33.650Z,8.80
2018-12-23T19:50:11.495Z,8.80
2018-12-23T19:53:00.871Z,8.80
2018-12-23T19:56:10.225Z,8.80
2018-12-23T19:59:18.980Z,8.80
2018-12-23T20:02:01.306Z,8.80
2018-12-23T20:04:57.009Z,8.70
2018-12-23T20:07:33.072Z,8.50
2018-12-23T20:10:19.335Z,8.50
2018-12-23T20:13:15.406Z,8.40
2018-12-23T20:19:03.041Z,8.20
2018-12-23T20:22:07.991Z,8.20
2018-12-23T20:27:32.010Z,8.20
2018-12-23T20:30:22.144Z,8.20
2018-12-23T20:38:28.242Z,8.00
2018-12-23T20:41:19.648Z,7.90
2018-12-23T20:44:02.701Z,7.80
2018-12-23T20:57:37.738Z,7.70
2018-12-23T21:00:32.954Z,7.70
2018-12-23T21:08:46.291Z,7.50
2018-12-23T21:14:10.638Z,7.30
2018-12-23T21:16:48.089Z,7.40
2018-12-23T21:19:41.678Z,7.40
2018-12-23T21:22:25.170Z,7.40
2018-12-23T21:25:11.097Z,7.30
2018-12-23T21:28:03.751Z,7.30
2018-12-23T21:33:30.093Z,7.30
2018-12-23T21:36:33.569Z,7.30
2018-12-23T21:39:25.838Z,7.30
2018-12-23T21:44:52.634Z,7.20
2018-12-23T21:47:42.146Z,7.30
2018-12-23T21:50:33.888Z,7.30
2018-12-23T21:55:44.182Z,7.30
2018-12-23T22:03:43.904Z,7.30
2018-12-23T22:06:33.323Z,7.40
2018-12-23T22:09:39.792Z,7.30
2018-12-23T22:12:32.140Z,7.20
2018-12-23T22:17:35.148Z,7.30
2018-12-23T22:20:06.959Z,7.30
2018-12-23T22:22:38.417Z,7.40
2018-12-23T22:27:40.642Z,7.10
2018-12-23T22:30:11.941Z,7.20
2018-12-23T22:32:43.212Z,7.20
2018-12-23T22:35:13.582Z,7.20
2018-12-23T22:40:36.779Z,7.00
2018-12-23T22:43:08.024Z,7.20
2018-12-23T22:45:39.225Z,7.20
2018-12-23T22:53:11.914Z,7.20
2018-12-23T22:55:42.261Z,7.10
2018-12-23T22:58:13.453Z,7.10
2018-12-23T23:00:45.805Z,7.10
2018-12-23T23:03:17.119Z,7.20
2018-12-23T23:05:48.229Z,7.10
2018-12-23T23:08:19.890Z,7.10
2018-12-23T23:10:51.155Z,7.10
2018-12-23T23:13:22.291Z,7.10
2018-12-23T23:15:54.786Z,7.10
2018-12-23T23:18:26.934Z,7.20
2018-12-23T23:20:57.307Z,7.20
2018-12-23T23:23:30.646Z,7.20
2018-12-23T23:26:01.806Z,7.10
2018-12-23T23:28:34.857Z,7.10
2018-12-23T23:36:07.794Z,7.00
2018-12-23T23:38:39.054Z,7.00
2018-12-23T23:43:40.086Z,6.90
2018-12-23T23:46:10.401Z,6.80
2018-12-23T23:48:41.617Z,6.80
2018-12-23T23:53:46.222Z,6.80
2018-12-23T23:58:47.593Z,6.80
